Bluegrove, Texas
Current Conditions -  °F | °C
As of 12:10 AM on Monday 26 Jan 2015 (Local Time) from K0F2 Reporting Station
Clear Clear  
Wind Chill: 36°   Ceiling: Unl
Heat Index: 39°   Visibility: 10mi
Dew Point: 27°   Wind: 5mph
Humidity: 62%   Direction: 280°W
Pressure: 30.21"   Gusts: NA
Location:  33.67°N, 98.23°W
Report Text: K0F2 260610Z AUTO 28004KT 10SM CLR 04/M03 A3021 RMK AO2 T00391028
Loading
Personal Weather Stations






























Interactive Weather Map New forecast layout! Learn more

10-Day Weather Forecast

Advertisements
Track Severe Weather on mobile